Time;durP1;ratioP1;P1;durP2;ratioP2;P2;SDS_P1;SDS_P2;PMS_P1;PMS_P2;Temp;Humidity;BMP_temperature;BMP_pressure;BME280_temperature;BME280_humidity;BME280_pressure;Samples;Min_cycle;Max_cycle;Signal;HPM_P1;HPM_P2
2022/01/16 00:01:34;;;;;;;3.33;1.90;;;;;;;14.88;30.06;99577.11;1738376;80;21034;-60
2022/01/16 00:06:23;;;;;;;3.27;1.72;;;;;;;14.93;29.94;99585.39;1770863;79;21066;-61
2022/01/16 00:08:49;;;;;;;3.77;1.90;;;;;;;14.89;29.95;99602.89;1734560;81;20957;-60
2022/01/16 00:11:16;;;;;;;3.05;1.70;;;;;;;14.91;29.87;99600.84;1751933;80;21011;-59
2022/01/16 00:13:43;;;;;;;4.03;1.50;;;;;;;14.89;29.82;99592.17;1751495;81;20986;-59
2022/01/16 00:16:13;;;;;;;2.77;1.47;;;;;;;14.90;29.73;99592.47;1731965;82;21049;-60
2022/01/16 00:18:49;;;;;;;3.62;1.95;;;;;;;14.88;29.65;99581.97;1730931;82;21168;-60
2022/01/16 00:21:11;;;;;;;3.00;1.67;;;;;;;14.82;29.66;99583.57;1767165;81;20994;-60
2022/01/16 00:23:38;;;;;;;3.92;1.98;;;;;;;14.83;29.59;99582.53;1751662;80;20924;-60
2022/01/16 00:26:05;;;;;;;3.05;1.40;;;;;;;14.87;29.53;99576.78;1731978;82;20908;-60
2022/01/16 00:28:31;;;;;;;4.50;2.17;;;;;;;14.86;29.56;99573.81;1732023;82;20856;-60
2022/01/16 00:30:58;;;;;;;10.28;5.33;;;;;;;14.89;29.48;99577.44;1717155;82;21207;-60
2022/01/16 00:33:24;;;;;;;10.93;5.72;;;;;;;14.78;29.40;99581.48;1738672;82;20876;-60
2022/01/16 00:35:51;;;;;;;9.15;5.42;;;;;;;14.82;29.39;99574.20;1766292;81;21467;-60
2022/01/16 00:38:17;;;;;;;10.08;4.50;;;;;;;14.81;29.46;99589.10;1760955;80;21006;-61
2022/01/16 00:40:44;;;;;;;8.95;3.65;;;;;;;14.91;29.44;99580.75;1728630;82;20995;-59
2022/01/16 00:43:11;;;;;;;7.83;4.08;;;;;;;14.89;29.46;99591.64;1736512;82;21241;-60
2022/01/16 00:45:37;;;;;;;7.62;4.03;;;;;;;14.91;29.50;99594.97;1726381;82;20985;-60
2022/01/16 00:48:05;;;;;;;8.05;4.35;;;;;;;14.93;29.50;99590.75;1761691;81;20884;-60
2022/01/16 00:50:34;;;;;;;7.37;3.85;;;;;;;14.88;29.51;99598.03;1748060;80;20926;-59
2022/01/16 00:53:02;;;;;;;10.53;3.58;;;;;;;14.78;29.49;99598.89;1735586;82;20931;-60
2022/01/16 00:55:29;;;;;;;5.53;3.37;;;;;;;14.82;29.48;99617.05;1748034;81;21147;-60
2022/01/16 00:57:55;;;;;;;4.40;2.65;;;;;;;14.87;29.46;99608.42;1748486;81;20995;-61
2022/01/16 01:00:22;;;;;;;5.95;2.42;;;;;;;14.88;29.48;99611.43;1712808;82;21016;-59
2022/01/16 01:02:50;;;;;;;4.60;2.58;;;;;;;14.81;29.57;99632.78;1803160;79;20972;-60
2022/01/16 01:05:17;;;;;;;5.65;3.27;;;;;;;14.77;29.67;99602.07;1791754;79;20986;-60
2022/01/16 01:07:44;;;;;;;5.53;3.12;;;;;;;14.81;29.66;99580.56;1796583;79;21796;-60
2022/01/16 01:10:11;;;;;;;7.28;3.55;;;;;;;14.76;29.68;99593.71;1788735;79;21556;-59
2022/01/16 01:12:53;;;;;;;7.65;3.45;;;;;;;14.69;29.74;99619.62;1796416;79;20971;-59
2022/01/16 01:15:10;;;;;;;4.95;3.17;;;;;;;14.73;29.68;99603.47;1784763;79;21624;-59
2022/01/16 01:17:45;;;;;;;6.78;3.30;;;;;;;14.71;29.65;99605.52;1792126;79;20981;-59
2022/01/16 01:20:16;;;;;;;3.92;2.75;;;;;;;14.80;29.51;99596.84;1787363;79;22108;-59
2022/01/16 01:22:43;;;;;;;5.85;3.10;;;;;;;14.79;29.53;99574.58;1784658;79;20918;-60
2022/01/16 01:25:16;;;;;;;4.62;2.40;;;;;;;14.76;29.54;99578.98;1778378;79;20947;-59
2022/01/16 01:27:41;;;;;;;5.45;2.47;;;;;;;14.68;29.57;99577.78;1784155;79;20923;-60
2022/01/16 01:30:14;;;;;;;4.00;2.10;;;;;;;14.64;29.52;99595.27;1787431;79;20931;-60
2022/01/16 01:32:45;;;;;;;4.55;2.70;;;;;;;14.53;29.57;99597.13;1791151;79;21086;-61
2022/01/16 01:35:13;;;;;;;5.17;2.27;;;;;;;14.57;29.52;99569.47;1783341;79;21017;-60
2022/01/16 01:37:41;;;;;;;4.28;2.12;;;;;;;14.54;29.53;99556.47;1793522;79;20922;-61
2022/01/16 01:40:11;;;;;;;1.72;1.50;;;;;;;14.53;29.47;99551.62;1782271;79;21924;-59
2022/01/16 01:42:49;;;;;;;4.20;1.87;;;;;;;14.49;29.36;99555.72;1800516;79;20958;-59
2022/01/16 01:51:02;;;;;;;2.10;1.62;;;;;;;14.49;29.14;99487.97;1785467;79;20919;-59
2022/01/16 01:53:29;;;;;;;4.25;2.08;;;;;;;14.44;29.15;99500.60;1787949;79;20970;-60
2022/01/16 01:55:56;;;;;;;3.87;2.05;;;;;;;14.41;29.27;99484.09;1793552;79;20887;-60
2022/01/16 01:58:22;;;;;;;3.27;1.57;;;;;;;14.41;29.32;99487.61;1786024;79;21253;-60
2022/01/16 02:00:49;;;;;;;4.67;2.20;;;;;;;14.43;29.42;99531.55;1788313;79;20963;-60
2022/01/16 02:03:22;;;;;;;4.42;2.15;;;;;;;14.47;29.47;99532.84;1796938;79;20950;-60
2022/01/16 02:05:44;;;;;;;3.15;2.12;;;;;;;14.47;29.58;99565.77;1791092;79;20958;-60
2022/01/16 02:08:10;;;;;;;3.87;2.47;;;;;;;14.45;29.62;99552.26;1780108;79;21581;-60
2022/01/16 02:10:38;;;;;;;4.08;2.02;;;;;;;14.40;29.70;99555.52;1792247;79;21161;-59
2022/01/16 02:13:07;;;;;;;5.75;2.15;;;;;;;14.40;29.75;99583.63;1785511;79;20824;-59
2022/01/16 02:32:02;;;;;;;4.70;2.50;;;;;;;14.33;30.35;99584.08;1726602;82;21485;-60
2022/01/16 02:34:32;;;;;;;5.78;3.08;;;;;;;14.34;30.46;99588.39;1766855;80;21391;-59
2022/01/16 02:37:07;;;;;;;5.08;2.40;;;;;;;14.35;30.43;99592.73;1729017;82;21164;-59
2022/01/16 02:39:35;;;;;;;3.72;2.50;;;;;;;14.33;30.40;99604.16;1756875;81;21024;-61
2022/01/16 02:42:07;;;;;;;5.62;2.42;;;;;;;14.34;30.29;99604.45;1743029;81;21008;-59
2022/01/16 02:44:45;;;;;;;7.55;2.70;;;;;;;14.33;30.19;99598.80;1737711;82;21462;-61
2022/01/16 02:47:02;;;;;;;5.30;2.65;;;;;;;14.32;30.09;99597.13;1750455;80;21356;-60
2022/01/16 02:49:33;;;;;;;3.47;2.40;;;;;;;14.28;30.12;99600.36;1734947;82;39021;-60
2022/01/16 02:52:09;;;;;;;4.97;2.67;;;;;;;14.30;30.13;99613.86;1754869;80;20962;-59
2022/01/16 02:54:39;;;;;;;5.65;2.42;;;;;;;14.30;30.13;99619.72;1750090;80;20935;-60
2022/01/16 02:57:08;;;;;;;6.50;3.00;;;;;;;14.28;30.17;99614.57;1738880;80;20940;-60
2022/01/16 02:59:35;;;;;;;4.35;2.58;;;;;;;14.31;30.09;99599.98;1758737;80;20935;-60
2022/01/16 03:02:02;;;;;;;4.33;2.42;;;;;;;14.32;30.08;99607.83;1722823;81;21145;-60
2022/01/16 03:04:29;;;;;;;4.05;2.52;;;;;;;14.32;30.05;99614.53;1726808;82;20911;-60
2022/01/16 03:07:02;;;;;;;5.03;2.75;;;;;;;14.24;30.10;99614.61;1729580;81;20944;-59
2022/01/16 03:09:45;;;;;;;3.85;2.20;;;;;;;14.20;30.07;99628.06;1773560;79;21041;-60
2022/01/16 03:11:58;;;;;;;4.47;2.30;;;;;;;14.21;29.98;99617.66;1781455;79;20962;-60
2022/01/16 03:14:25;;;;;;;5.30;2.87;;;;;;;14.22;29.85;99627.36;1770575;80;21150;-60
2022/01/16 03:16:53;;;;;;;3.72;2.52;;;;;;;14.17;29.82;99628.44;1770132;80;21457;-60
2022/01/16 03:22:06;;;;;;;5.12;2.62;;;;;;;14.17;29.75;99612.39;1761619;80;21540;-59
2022/01/16 03:24:40;;;;;;;7.10;2.72;;;;;;;14.21;29.77;99606.96;1760231;80;20881;-60
2022/01/16 03:27:19;;;;;;;6.10;2.92;;;;;;;14.21;29.81;99607.80;1777631;80;21853;-60
2022/01/16 03:29:51;;;;;;;6.30;2.72;;;;;;;14.22;29.81;99612.14;1768439;80;20990;-59
2022/01/16 03:32:20;;;;;;;5.33;3.17;;;;;;;14.22;29.80;99602.78;1768040;80;21023;-60
2022/01/16 03:34:47;;;;;;;5.03;3.20;;;;;;;14.20;29.83;99602.65;1762584;80;21524;-59
2022/01/16 03:37:13;;;;;;;4.15;2.80;;;;;;;14.14;29.88;99606.91;1777716;80;20974;-60
2022/01/16 03:39:40;;;;;;;6.25;3.17;;;;;;;14.18;29.81;99611.38;1768829;80;21832;-60
2022/01/16 03:42:07;;;;;;;4.90;2.75;;;;;;;14.13;29.79;99615.14;1780668;80;21584;-60
2022/01/16 03:44:34;;;;;;;5.35;2.50;;;;;;;14.15;29.72;99607.75;1770961;80;20888;-59
2022/01/16 03:47:00;;;;;;;3.42;2.35;;;;;;;14.07;29.56;99613.21;1747789;80;20966;-59
2022/01/16 03:49:29;;;;;;;6.00;2.90;;;;;;;14.05;29.44;99613.37;1772213;80;21591;-59
2022/01/16 03:51:56;;;;;;;4.10;2.25;;;;;;;14.03;29.40;99611.41;1756627;80;21199;-60
2022/01/16 03:54:27;;;;;;;4.85;2.20;;;;;;;14.01;29.32;99609.44;1754935;80;20871;-60
2022/01/16 03:56:54;;;;;;;6.28;2.52;;;;;;;13.97;29.24;99608.17;1774373;80;20851;-60
2022/01/16 03:59:21;;;;;;;6.35;2.85;;;;;;;13.97;29.20;99608.17;1775150;80;21012;-60
2022/01/16 04:01:48;;;;;;;5.00;2.60;;;;;;;13.98;29.22;99611.66;1777823;79;21568;-59
2022/01/16 04:04:15;;;;;;;4.12;2.70;;;;;;;14.00;29.16;99612.31;1759178;80;21818;-59
2022/01/16 04:06:41;;;;;;;4.10;2.60;;;;;;;14.00;29.20;99605.63;1779535;80;20950;-60
2022/01/16 04:09:08;;;;;;;4.50;2.62;;;;;;;14.01;29.14;99604.09;1764016;80;20959;-60
2022/01/16 04:11:37;;;;;;;5.58;2.70;;;;;;;14.02;29.20;99603.59;1763977;80;20867;-59
2022/01/16 04:16:30;;;;;;;3.80;2.37;;;;;;;14.11;29.09;99605.11;1763280;80;21833;-60
2022/01/16 04:18:57;;;;;;;4.60;1.82;;;;;;;14.11;29.04;99606.45;1769289;80;20919;-60
2022/01/16 04:21:25;;;;;;;6.90;3.02;;;;;;;14.13;28.98;99604.44;1751197;80;20895;-59
2022/01/16 04:23:53;;;;;;;4.22;2.37;;;;;;;14.09;28.99;99611.17;1762562;80;20951;-60
2022/01/16 04:26:20;;;;;;;5.50;2.30;;;;;;;14.10;28.99;99604.81;1758689;80;21532;-59
2022/01/16 04:28:47;;;;;;;4.15;2.50;;;;;;;14.07;28.95;99611.87;1772918;80;21137;-60
2022/01/16 04:31:14;;;;;;;4.80;2.20;;;;;;;14.06;28.96;99595.49;1765707;80;21005;-59
2022/01/16 04:33:41;;;;;;;4.35;2.37;;;;;;;14.09;28.89;99597.79;1768487;80;20966;-59
2022/01/16 04:36:08;;;;;;;4.92;2.00;;;;;;;14.05;28.87;99599.20;1770448;80;20995;-59
2022/01/16 04:38:38;;;;;;;4.05;1.90;;;;;;;14.03;28.81;99602.55;1769410;80;21065;-59
2022/01/16 04:43:52;;;;;;;3.02;1.50;;;;;;;13.82;28.68;99590.52;1764961;80;20922;-59
2022/01/16 04:46:22;;;;;;;3.60;2.10;;;;;;;13.75;28.68;99604.29;1754974;80;21540;-59
2022/01/16 04:48:49;;;;;;;3.37;2.10;;;;;;;13.69;28.78;99611.74;1766357;80;21528;-59
2022/01/16 04:51:16;;;;;;;5.87;2.37;;;;;;;13.69;28.80;99615.22;1756836;80;21520;-59
2022/01/16 04:53:42;;;;;;;4.58;2.08;;;;;;;13.70;28.82;99619.56;1769095;80;21534;-59
2022/01/16 04:56:10;;;;;;;3.95;2.72;;;;;;;13.70;28.89;99612.87;1772610;80;20916;-60
2022/01/16 04:58:37;;;;;;;5.53;2.40;;;;;;;13.78;28.91;99615.45;1765424;80;21422;-59
2022/01/16 05:01:03;;;;;;;4.10;2.20;;;;;;;13.82;28.90;99635.44;1758623;80;20970;-59
2022/01/16 05:03:31;;;;;;;5.28;2.10;;;;;;;13.84;28.81;99623.23;1758784;80;20965;-59
2022/01/16 05:05:58;;;;;;;6.80;2.40;;;;;;;13.78;28.79;99621.30;1766520;80;21157;-59
2022/01/16 05:08:24;;;;;;;3.72;2.30;;;;;;;13.72;28.84;99628.72;1778874;79;20919;-60
2022/01/16 05:10:54;;;;;;;2.75;1.85;;;;;;;13.78;28.80;99627.98;1788922;79;21374;-58
2022/01/16 05:18:38;;;;;;;4.47;2.15;;;;;;;13.90;28.85;99633.16;1794918;79;21150;-60
2022/01/16 05:21:05;;;;;;;4.22;1.72;;;;;;;13.91;28.84;99624.97;1771598;79;20962;-59
2022/01/16 05:23:32;;;;;;;3.72;1.98;;;;;;;13.94;28.87;99622.42;1786249;79;20886;-59
2022/01/16 05:26:00;;;;;;;5.55;2.02;;;;;;;13.87;28.96;99616.18;1785600;79;21409;-59
2022/01/16 05:28:27;;;;;;;3.83;2.05;;;;;;;13.87;28.97;99616.18;1785580;79;20883;-59
2022/01/16 05:30:54;;;;;;;4.92;2.05;;;;;;;13.88;28.88;99616.48;1774321;79;21148;-59
2022/01/16 05:33:20;;;;;;;3.75;1.95;;;;;;;13.85;28.95;99611.50;1777815;79;20958;-60
2022/01/16 05:35:47;;;;;;;9.15;2.12;;;;;;;13.84;29.03;99624.06;1793602;79;20970;-60
2022/01/16 05:38:14;;;;;;;4.08;2.33;;;;;;;13.86;29.06;99618.02;1776610;79;21079;-60
2022/01/16 05:40:40;;;;;;;3.42;2.15;;;;;;;13.88;29.12;99624.50;1774752;79;20968;-60
2022/01/16 05:43:07;;;;;;;4.05;2.27;;;;;;;13.89;29.10;99623.50;1780408;79;21204;-60
2022/01/16 05:45:34;;;;;;;4.60;2.10;;;;;;;13.95;29.06;99613.36;1782691;79;21234;-60
2022/01/16 05:48:00;;;;;;;3.52;2.20;;;;;;;13.99;29.03;99618.67;1713727;82;20946;-59
2022/01/16 05:50:28;;;;;;;3.08;1.87;;;;;;;14.04;28.92;99623.78;1790500;79;21008;-60
2022/01/16 05:52:54;;;;;;;4.12;2.00;;;;;;;14.04;28.87;99617.09;1789285;79;20864;-60
2022/01/16 05:55:21;;;;;;;4.62;2.10;;;;;;;13.97;28.90;99614.86;1790248;79;21437;-59
2022/01/16 05:57:47;;;;;;;4.45;1.95;;;;;;;14.01;28.80;99620.14;1776502;79;21027;-59
2022/01/16 06:00:15;;;;;;;3.83;1.98;;;;;;;14.06;28.77;99618.23;1789879;79;20974;-59
2022/01/16 06:02:41;;;;;;;4.47;1.90;;;;;;;14.04;28.85;99622.95;1779376;79;20919;-59
2022/01/16 06:05:10;;;;;;;4.17;2.00;;;;;;;14.10;28.80;99622.20;1791314;79;20923;-60
2022/01/16 06:07:36;;;;;;;4.33;2.00;;;;;;;14.17;28.71;99624.42;1787297;79;21131;-60
2022/01/16 06:10:05;;;;;;;3.00;1.77;;;;;;;14.15;28.72;99627.81;1802268;79;21410;-60
2022/01/16 06:12:32;;;;;;;4.83;1.87;;;;;;;14.13;28.79;99629.85;1798231;79;20915;-59
2022/01/16 06:15:00;;;;;;;5.08;1.75;;;;;;;14.19;28.77;99629.91;1787577;79;21027;-61
2022/01/16 06:17:26;;;;;;;3.47;2.22;;;;;;;14.22;28.79;99634.05;1789595;79;21442;-60
2022/01/16 06:19:53;;;;;;;5.47;2.47;;;;;;;14.23;28.84;99624.48;1802669;79;21118;-61
2022/01/16 06:22:19;;;;;;;4.75;2.58;;;;;;;14.35;28.82;99630.20;1798480;79;20935;-61
2022/01/16 06:24:46;;;;;;;4.03;2.45;;;;;;;14.37;28.85;99624.14;1713917;82;20956;-60
2022/01/16 06:27:12;;;;;;;4.75;2.50;;;;;;;14.36;28.93;99617.66;1750996;80;21567;-60
2022/01/16 06:29:39;;;;;;;6.90;2.40;;;;;;;14.30;28.99;99624.56;1758275;80;20990;-59
2022/01/16 06:32:06;;;;;;;8.50;2.92;;;;;;;14.27;29.06;99628.13;1750590;81;21137;-60
2022/01/16 06:34:33;;;;;;;5.05;2.77;;;;;;;14.27;29.08;99635.64;1736569;81;21415;-60
2022/01/16 06:37:00;;;;;;;5.42;3.20;;;;;;;14.28;29.07;99632.47;1737419;82;21519;-59
2022/01/16 06:39:29;;;;;;;6.67;3.05;;;;;;;14.27;29.08;99636.98;1739494;81;21064;-60
2022/01/16 06:41:57;;;;;;;5.45;2.83;;;;;;;14.28;29.05;99637.81;1767384;81;21018;-60
2022/01/16 06:44:24;;;;;;;4.70;2.75;;;;;;;14.25;29.06;99636.35;1761107;81;21206;-60
2022/01/16 06:46:51;;;;;;;4.83;2.25;;;;;;;14.28;28.98;99640.49;1731630;82;20995;-60
2022/01/16 06:49:17;;;;;;;4.20;2.33;;;;;;;14.24;28.93;99638.70;1747269;81;21520;-60
2022/01/16 06:51:43;;;;;;;3.75;2.55;;;;;;;14.25;28.91;99629.66;1763021;80;20978;-60
2022/01/16 06:54:10;;;;;;;4.67;2.27;;;;;;;14.28;28.86;99633.80;1773331;80;21517;-60
2022/01/16 06:56:36;;;;;;;4.12;1.90;;;;;;;14.38;28.75;99635.18;1767920;80;21513;-61
2022/01/16 06:59:03;;;;;;;3.83;2.08;;;;;;;14.41;28.70;99633.97;1762626;80;21488;-61
2022/01/16 07:01:30;;;;;;;4.05;2.02;;;;;;;14.32;28.81;99636.44;1791498;79;20998;-61
2022/01/16 07:03:57;;;;;;;5.60;2.62;;;;;;;14.29;28.89;99637.61;1782633;79;21470;-61
2022/01/16 07:06:24;;;;;;;8.95;2.85;;;;;;;14.32;28.78;99629.24;1790110;79;20872;-60
2022/01/16 07:08:50;;;;;;;2.80;1.70;;;;;;;14.41;28.73;99636.65;1788419;78;21154;-59
2022/01/16 07:11:17;;;;;;;3.83;2.00;;;;;;;14.42;28.66;99636.95;1787431;79;20996;-59
2022/01/16 07:13:43;;;;;;;2.92;1.98;;;;;;;14.39;28.52;99642.70;1769288;79;21777;-60
2022/01/16 07:16:10;;;;;;;3.58;2.33;;;;;;;14.35;28.59;99636.06;1781000;79;20978;-60
2022/01/16 07:18:37;;;;;;;3.72;2.20;;;;;;;14.34;28.63;99641.92;1788333;79;20962;-61
2022/01/16 07:21:12;;;;;;;4.55;2.17;;;;;;;14.38;28.59;99649.06;1778821;79;21143;-59
2022/01/16 07:23:34;;;;;;;3.77;2.05;;;;;;;14.38;28.64;99651.74;1788973;79;20986;-60
2022/01/16 07:26:00;;;;;;;4.00;2.27;;;;;;;14.51;28.48;99651.88;1775285;79;21493;-62
2022/01/16 07:28:27;;;;;;;5.10;2.50;;;;;;;14.51;28.40;99654.55;1793910;79;20998;-59
2022/01/16 07:30:54;;;;;;;3.05;1.92;;;;;;;14.48;28.37;99652.25;1775273;79;21432;-59
2022/01/16 08:10:47;;;;;;;5.92;2.55;;;;;;;15.17;27.89;99651.93;1788044;79;20963;-61
2022/01/16 08:13:14;;;;;;;6.05;2.70;;;;;;;15.22;27.80;99644.97;1796772;79;20930;-60
2022/01/16 08:15:43;;;;;;;3.25;2.10;;;;;;;15.32;27.76;99637.91;1785439;79;21635;-60
2022/01/16 08:18:10;;;;;;;4.30;3.05;;;;;;;15.33;27.84;99639.03;1785700;79;21169;-57
2022/01/16 08:20:36;;;;;;;7.17;3.37;;;;;;;15.40;27.90;99645.80;1783704;79;20944;-59
2022/01/16 08:23:04;;;;;;;7.95;3.77;;;;;;;15.53;27.92;99651.27;1793726;79;20947;-61
2022/01/16 08:25:30;;;;;;;7.10;3.33;;;;;;;15.70;27.92;99645.04;1801759;79;20991;-60
2022/01/16 08:27:57;;;;;;;9.30;4.45;;;;;;;15.93;27.87;99642.36;1789488;79;20970;-60
2022/01/16 08:30:23;;;;;;;6.40;3.55;;;;;;;16.27;27.69;99643.32;1797233;79;21100;-59
2022/01/16 08:32:50;;;;;;;5.67;3.90;;;;;;;16.35;27.46;99637.73;1727087;82;20952;-61
2022/01/16 08:35:16;;;;;;;6.30;3.87;;;;;;;16.41;27.42;99640.95;1760621;81;21524;-60
2022/01/16 08:37:43;;;;;;;6.87;4.33;;;;;;;16.55;27.31;99641.34;1723500;81;21559;-60
2022/01/16 08:40:11;;;;;;;8.30;4.03;;;;;;;16.72;27.08;99634.52;1747984;81;20943;-63
2022/01/16 08:42:40;;;;;;;6.58;4.12;;;;;;;16.80;27.05;99632.98;1757000;81;21147;-61
2022/01/16 08:45:07;;;;;;;8.20;4.28;;;;;;;16.87;27.01;99646.43;1736410;81;20943;-63
2022/01/16 08:47:34;;;;;;;12.82;5.05;;;;;;;16.92;26.98;99635.34;1737974;81;20883;-62
2022/01/16 08:50:05;;;;;;;8.65;4.70;;;;;;;16.93;27.01;99621.39;1743043;81;21089;-61
2022/01/16 08:52:30;;;;;;;7.40;4.12;;;;;;;16.97;26.80;99612.70;1741349;81;20967;-64
2022/01/16 08:54:56;;;;;;;11.78;5.90;;;;;;;16.91;26.80;99622.96;1740059;81;21218;-65
2022/01/16 08:57:23;;;;;;;9.38;4.42;;;;;;;16.94;26.82;99633.81;1736139;81;21053;-63
2022/01/16 08:59:51;;;;;;;8.05;5.12;;;;;;;17.02;26.78;99629.06;1781728;79;21486;-62
2022/01/16 09:02:18;;;;;;;8.95;4.97;;;;;;;17.02;26.80;99619.66;1784053;79;21070;-63
2022/01/16 09:04:44;;;;;;;8.98;5.45;;;;;;;16.97;26.88;99622.66;1790636;79;21062;-63
2022/01/16 09:07:12;;;;;;;8.03;5.62;;;;;;;16.84;27.00;99622.66;1795559;79;21222;-62
2022/01/16 09:09:38;;;;;;;8.58;5.42;;;;;;;16.94;26.87;99614.48;1791886;79;21441;-62
2022/01/16 09:12:08;;;;;;;11.30;6.70;;;;;;;16.90;27.01;99607.86;1786159;79;20970;-62
2022/01/16 09:14:36;;;;;;;9.68;6.83;;;;;;;16.91;27.07;99611.38;1791411;79;21599;-60
2022/01/16 09:17:05;;;;;;;8.53;5.95;;;;;;;16.91;27.15;99606.84;1793074;79;21003;-59
2022/01/16 09:19:32;;;;;;;9.68;6.03;;;;;;;16.97;27.14;99594.44;1778875;79;21235;-59
2022/01/16 09:21:59;;;;;;;7.08;5.55;;;;;;;16.91;27.15;99593.92;1794748;79;20918;-61
2022/01/16 09:24:25;;;;;;;8.08;5.78;;;;;;;16.88;27.10;99587.09;1792505;79;20983;-61
2022/01/16 09:26:54;;;;;;;8.58;5.95;;;;;;;16.89;27.09;99584.73;1787334;79;21043;-61
2022/01/16 09:29:22;;;;;;;7.75;5.75;;;;;;;16.99;27.09;99582.44;1793666;79;21015;-62
2022/01/16 09:31:49;;;;;;;8.90;6.12;;;;;;;17.02;27.08;99575.31;1782979;79;21143;-60
2022/01/16 09:34:15;;;;;;;9.65;6.30;;;;;;;17.11;26.76;99565.97;1783063;79;21481;-63
2022/01/16 09:36:42;;;;;;;11.28;6.95;;;;;;;17.23;26.65;99562.94;1788185;79;20967;-62
2022/01/16 09:39:08;;;;;;;9.35;5.92;;;;;;;17.37;26.60;99554.83;1789763;79;22046;-61
2022/01/16 09:41:35;;;;;;;9.60;5.70;;;;;;;17.46;26.43;99557.09;1787923;79;20923;-62
2022/01/16 09:44:01;;;;;;;9.15;5.50;;;;;;;17.52;26.28;99559.45;1795049;79;21077;-62
2022/01/16 09:46:29;;;;;;;8.30;5.67;;;;;;;17.66;26.16;99544.41;1791911;79;20963;-63
2022/01/16 09:48:56;;;;;;;7.45;4.78;;;;;;;17.63;26.01;99544.00;1793553;79;20943;-63
2022/01/16 09:51:22;;;;;;;8.15;4.58;;;;;;;17.52;25.86;99540.09;1788650;79;20895;-62
2022/01/16 09:53:48;;;;;;;6.83;4.95;;;;;;;17.27;25.88;99534.61;1780875;79;20982;-61
2022/01/16 09:56:15;;;;;;;7.28;4.50;;;;;;;17.04;26.02;99538.30;1785412;79;21971;-60
2022/01/16 09:58:41;;;;;;;8.45;5.53;;;;;;;17.00;26.08;99537.56;1795503;79;21442;-61
2022/01/16 10:01:08;;;;;;;8.55;4.80;;;;;;;17.06;26.03;99532.19;1785865;79;21567;-61
2022/01/16 10:03:44;;;;;;;11.55;4.70;;;;;;;16.97;26.18;99534.77;1794525;79;21402;-61
2022/01/16 10:06:16;;;;;;;;;;;;;;;16.91;26.22;99530.77;1792685;79;21035;-61
2022/01/16 10:08:44;;;;;;;7.83;4.17;;;;;;;17.00;26.06;99528.98;1791902;79;21080;-61
2022/01/16 10:11:28;;;;;;;7.03;3.70;;;;;;;17.21;26.07;99517.14;1788605;79;21579;-62
2022/01/16 10:14:07;;;;;;;6.15;4.65;;;;;;;17.71;25.90;99520.37;1796057;79;20840;-62
2022/01/16 10:16:36;;;;;;;7.87;4.67;;;;;;;18.29;25.27;99508.10;1789192;79;21615;-60
2022/01/16 10:19:03;;;;;;;7.55;5.30;;;;;;;18.31;24.95;99512.22;1790004;79;20999;-62
2022/01/16 10:21:39;;;;;;;6.53;5.08;;;;;;;18.36;24.98;99511.56;1790791;79;21146;-60
2022/01/16 10:24:26;;;;;;;8.95;5.50;;;;;;;18.60;24.71;99513.46;1788946;79;21006;-62
2022/01/16 10:27:12;;;;;;;8.80;4.92;;;;;;;18.67;24.60;99503.96;1791984;79;21014;-62
2022/01/16 10:29:52;;;;;;;9.00;5.47;;;;;;;18.58;24.59;99495.88;1775312;79;20932;-61
2022/01/16 10:32:26;;;;;;;12.98;6.85;;;;;;;18.57;24.48;99496.91;1778766;79;20975;-66
2022/01/16 10:35:17;;;;;;;8.80;5.85;;;;;;;18.60;24.42;99495.12;1793062;79;21094;-67
2022/01/16 10:37:54;;;;;;;6.78;4.95;;;;;;;18.74;24.26;99498.00;1793238;79;21437;-63
2022/01/16 10:40:24;;;;;;;7.30;4.70;;;;;;;18.66;24.01;99493.73;1785537;79;20974;-64
2022/01/16 10:42:54;;;;;;;8.18;5.10;;;;;;;18.45;23.93;99490.89;1786518;79;21487;-64
2022/01/16 10:45:26;;;;;;;10.05;5.78;;;;;;;18.27;24.12;99489.48;1781627;79;21094;-64
2022/01/16 10:47:55;;;;;;;8.38;5.05;;;;;;;18.15;24.19;99487.69;1786379;79;21160;-64
2022/01/16 10:50:28;;;;;;;9.93;5.53;;;;;;;17.85;24.33;99487.50;1795405;79;20923;-63
2022/01/16 10:53:05;;;;;;;8.90;5.10;;;;;;;17.77;24.57;99489.11;1784956;79;21512;-63
2022/01/16 10:55:40;;;;;;;9.83;6.08;;;;;;;17.70;24.66;99481.60;1785515;79;21136;-60
2022/01/16 10:58:24;;;;;;;8.73;6.10;;;;;;;17.40;24.79;99475.09;1782865;79;21495;-61
2022/01/16 11:01:04;;;;;;;8.65;5.50;;;;;;;17.17;25.07;99473.75;1783623;79;21141;-64
2022/01/16 11:03:41;;;;;;;9.25;4.80;;;;;;;17.04;25.32;99470.28;1788767;79;20955;-61
2022/01/16 11:06:08;;;;;;;7.28;4.53;;;;;;;17.06;25.52;99467.69;1790265;79;20977;-62
2022/01/16 11:08:34;;;;;;;7.83;5.40;;;;;;;17.09;25.46;99460.55;1787409;79;20969;-63
2022/01/16 11:11:01;;;;;;;8.95;5.62;;;;;;;17.11;25.43;99453.59;1791652;79;21519;-60
2022/01/16 11:13:33;;;;;;;8.58;5.45;;;;;;;17.12;25.49;99455.27;1781443;79;21822;-66
2022/01/16 11:16:05;;;;;;;8.58;5.55;;;;;;;17.17;25.48;99450.07;1782845;79;20930;-61
2022/01/16 11:18:40;;;;;;;9.45;6.65;;;;;;;17.09;25.56;99448.96;1787143;79;20955;-60
2022/01/16 11:24:00;;;;;;;8.93;6.53;;;;;;;17.24;25.52;99438.77;1797707;79;21035;-59
2022/01/16 11:26:18;;;;;;;11.00;7.83;;;;;;;17.29;25.49;99441.12;1789505;79;21513;-60
2022/01/16 11:28:45;;;;;;;9.13;6.50;;;;;;;17.38;25.37;99439.02;1785549;79;20966;-60
2022/01/16 11:31:13;;;;;;;9.60;6.85;;;;;;;17.42;25.40;99436.19;1789776;79;21511;-60
2022/01/16 11:33:41;;;;;;;8.48;6.53;;;;;;;17.55;25.21;99435.31;1795119;79;20958;-63
2022/01/16 11:36:14;;;;;;;8.20;5.83;;;;;;;17.48;25.17;99425.92;1784793;79;21032;-62
2022/01/16 11:38:47;;;;;;;8.08;6.75;;;;;;;17.46;25.43;99425.84;1788903;79;21138;-60
2022/01/16 11:41:26;;;;;;;7.97;6.03;;;;;;;17.53;25.33;99422.61;1801572;79;20864;-59
2022/01/16 11:43:56;;;;;;;10.55;6.53;;;;;;;17.46;25.35;99417.77;1795386;79;21116;-59
2022/01/16 11:46:28;;;;;;;8.75;6.47;;;;;;;17.32;25.44;99418.35;1783522;79;20991;-58
2022/01/16 11:49:03;;;;;;;8.65;6.85;;;;;;;17.13;25.63;99411.20;1780059;79;21496;-60
2022/01/16 11:51:39;;;;;;;13.10;7.67;;;;;;;16.94;25.85;99419.67;1796052;79;21970;-59
2022/01/16 11:54:23;;;;;;;10.05;7.25;;;;;;;16.87;26.07;99412.68;1791993;79;21398;-61
2022/01/16 11:57:03;;;;;;;7.40;5.75;;;;;;;16.87;26.23;99413.48;1793707;79;21017;-58
2022/01/16 11:59:40;;;;;;;9.50;6.55;;;;;;;16.82;26.27;99407.09;1800907;79;20883;-62
2022/01/16 12:02:16;;;;;;;12.68;6.65;;;;;;;16.76;26.28;99406.61;1801588;79;21560;-62
2022/01/16 12:04:47;;;;;;;9.43;6.97;;;;;;;16.64;26.18;99403.73;1788477;79;21132;-62
2022/01/16 12:07:23;;;;;;;9.33;6.37;;;;;;;16.32;26.30;99411.33;1795692;79;20920;-60
2022/01/16 12:09:53;;;;;;;;;;;;;;;16.16;26.45;99397.83;1788631;79;21510;-60
2022/01/16 12:12:27;;;;;;;13.22;7.42;;;;;;;16.08;26.72;99409.57;1794506;79;20643;-60
2022/01/16 12:15:08;;;;;;;8.95;6.78;;;;;;;16.22;26.83;99397.48;1774959;79;21039;-61
2022/01/16 12:17:45;;;;;;;10.48;7.60;;;;;;;16.28;26.82;99393.98;1780912;79;20939;-61
2022/01/16 12:20:18;;;;;;;7.72;6.10;;;;;;;16.52;26.83;99386.13;1784737;79;20932;-61
2022/01/16 12:23:05;;;;;;;8.48;6.40;;;;;;;16.72;26.68;99386.56;1793232;79;21057;-60
2022/01/16 12:25:45;;;;;;;9.43;5.75;;;;;;;16.74;26.44;99384.52;1785652;79;20979;-64
2022/01/16 12:28:14;;;;;;;10.63;7.05;;;;;;;16.84;26.42;99383.00;1779858;79;21552;-66
2022/01/16 12:31:03;;;;;;;11.55;6.85;;;;;;;16.93;26.49;99369.65;1778718;79;21199;-65
2022/01/16 12:33:45;;;;;;;11.38;7.22;;;;;;;16.91;26.58;99373.08;1794457;79;20880;-66
2022/01/16 12:36:16;;;;;;;11.10;6.35;;;;;;;16.88;26.65;99374.01;1775326;79;20988;-62
2022/01/16 12:38:50;;;;;;;9.08;5.70;;;;;;;17.06;27.05;99370.93;1781491;79;20986;-62
2022/01/16 12:41:41;;;;;;;10.23;6.37;;;;;;;17.13;26.74;99370.88;1790612;79;21418;-66
2022/01/16 12:44:10;;;;;;;8.63;5.78;;;;;;;17.06;26.55;99372.79;1795224;79;21131;-63
2022/01/16 12:46:41;;;;;;;6.65;5.35;;;;;;;17.02;26.37;99370.23;1780312;79;20875;-63
2022/01/16 12:49:15;;;;;;;8.70;5.50;;;;;;;16.99;25.92;99371.49;1781467;79;20931;-65
2022/01/16 12:51:44;;;;;;;9.28;5.95;;;;;;;16.66;26.00;99372.12;1793865;79;20896;-65
2022/01/16 12:54:14;;;;;;;8.45;5.33;;;;;;;16.42;26.62;99371.45;1777833;79;20986;-64
2022/01/16 12:56:51;;;;;;;8.03;5.35;;;;;;;16.29;26.94;99363.42;1791079;79;21117;-64
2022/01/16 12:59:21;;;;;;;9.73;5.58;;;;;;;16.26;26.75;99359.81;1781334;79;20907;-63
2022/01/16 13:01:57;;;;;;;11.85;6.58;;;;;;;16.30;26.66;99355.16;1787900;79;20995;-64